createdAt,value
2022-10-26T00:01:07.739Z,4.50
2022-10-26T00:03:36.246Z,4.53
2022-10-26T00:06:14.555Z,5.53
2022-10-26T00:08:42.587Z,5.53
2022-10-26T00:11:10.223Z,5.53
2022-10-26T00:13:38.570Z,5.72
2022-10-26T00:16:23.463Z,7.18
2022-10-26T00:18:51.123Z,6.87
2022-10-26T00:21:19.155Z,6.10
2022-10-26T00:23:46.594Z,6.75
2022-10-26T00:26:13.965Z,7.62
2022-10-26T00:28:41.683Z,7.55
2022-10-26T00:31:12.999Z,8.63
2022-10-26T00:33:40.329Z,8.18
2022-10-26T00:36:10.037Z,8.07
2022-10-26T00:38:37.968Z,6.40
2022-10-26T00:41:05.700Z,5.82
2022-10-26T00:43:38.561Z,5.78
2022-10-26T00:46:08.855Z,6.37
2022-10-26T00:48:39.493Z,5.43
2022-10-26T00:51:09.872Z,5.50
2022-10-26T00:53:37.901Z,4.35
2022-10-26T00:56:05.545Z,5.03
2022-10-26T00:58:33.052Z,4.45
2022-10-26T01:01:00.695Z,4.30
2022-10-26T01:03:28.387Z,4.18
2022-10-26T01:05:57.274Z,4.22
2022-10-26T01:08:26.364Z,4.30
2022-10-26T01:10:53.973Z,4.30
2022-10-26T01:13:21.486Z,3.97
2022-10-26T01:15:57.003Z,3.62
2022-10-26T01:18:35.526Z,4.25
2022-10-26T01:21:21.434Z,4.25
2022-10-26T01:24:19.836Z,4.50
2022-10-26T01:26:56.401Z,5.65
2022-10-26T01:29:35.543Z,5.07
2022-10-26T01:32:07.891Z,4.82
2022-10-26T01:34:45.207Z,5.30
2022-10-26T01:37:16.650Z,5.03
2022-10-26T01:39:52.629Z,4.72
2022-10-26T01:42:21.851Z,4.47
2022-10-26T01:44:53.528Z,5.18
2022-10-26T01:47:21.584Z,5.20
2022-10-26T01:49:53.871Z,5.70
2022-10-26T01:52:21.988Z,5.15
2022-10-26T01:54:49.337Z,5.50
2022-10-26T01:57:19.450Z,5.53
2022-10-26T02:00:11.315Z,5.32
2022-10-26T02:02:48.100Z,5.15
2022-10-26T02:05:35.617Z,4.93
2022-10-26T02:08:24.362Z,5.43
2022-10-26T02:11:16.062Z,5.12
2022-10-26T02:14:17.395Z,4.95
2022-10-26T02:16:58.725Z,5.55
2022-10-26T02:19:48.194Z,5.03
2022-10-26T02:22:19.599Z,5.28
2022-10-26T02:24:48.278Z,5.53
2022-10-26T02:27:18.909Z,4.85
2022-10-26T02:29:47.676Z,4.57
2022-10-26T02:32:15.988Z,4.57
2022-10-26T02:34:45.208Z,4.37
2022-10-26T02:37:14.156Z,5.10
2022-10-26T02:39:41.990Z,5.22
2022-10-26T02:42:09.737Z,5.03
2022-10-26T02:44:44.949Z,7.87
2022-10-26T02:49:39.830Z,6.40
2022-10-26T02:52:16.419Z,5.18
2022-10-26T02:54:51.668Z,4.72
2022-10-26T02:59:57.992Z,5.32
2022-10-26T03:02:25.707Z,4.90
2022-10-26T03:04:53.370Z,5.43
2022-10-26T03:07:22.935Z,5.15
2022-10-26T03:09:50.679Z,5.57
2022-10-26T03:12:18.265Z,4.65
2022-10-26T03:14:46.396Z,8.90
2022-10-26T03:17:13.720Z,10.70
2022-10-26T03:19:41.217Z,7.18
2022-10-26T03:22:08.802Z,7.68
2022-10-26T03:24:36.204Z,6.00
2022-10-26T03:27:03.622Z,6.87
2022-10-26T03:29:31.261Z,5.87
2022-10-26T03:31:58.697Z,5.70
2022-10-26T03:34:26.039Z,7.15
2022-10-26T03:36:53.623Z,6.57
2022-10-26T03:39:20.939Z,6.07
2022-10-26T03:41:48.314Z,6.90
2022-10-26T03:44:16.013Z,6.60
2022-10-26T03:46:43.355Z,6.43
2022-10-26T03:49:10.703Z,6.03
2022-10-26T03:51:38.585Z,5.78
2022-10-26T03:54:06.598Z,5.72
2022-10-26T03:56:33.956Z,5.97
2022-10-26T03:59:01.530Z,5.45
2022-10-26T04:01:28.895Z,4.82
2022-10-26T04:03:56.601Z,4.70
2022-10-26T04:06:23.977Z,4.60
2022-10-26T04:08:51.841Z,4.28
2022-10-26T04:11:19.483Z,3.75
2022-10-26T04:13:48.071Z,4.45
2022-10-26T04:16:15.401Z,4.00
2022-10-26T04:18:43.082Z,3.80
2022-10-26T04:21:10.422Z,3.55
2022-10-26T04:23:37.867Z,4.03
2022-10-26T04:26:06.286Z,4.32
2022-10-26T04:28:33.677Z,4.57
2022-10-26T04:31:01.005Z,4.40
2022-10-26T04:33:28.592Z,4.45
2022-10-26T04:36:01.089Z,3.87
2022-10-26T04:38:28.884Z,3.70
2022-10-26T04:40:56.216Z,4.45
2022-10-26T04:43:23.551Z,3.95
2022-10-26T04:45:55.122Z,4.90
2022-10-26T04:53:27.962Z,4.20
2022-10-26T04:56:01.436Z,5.20
2022-10-26T04:58:29.278Z,4.97
2022-10-26T05:00:56.678Z,5.22
2022-10-26T05:03:24.069Z,6.55
2022-10-26T05:05:52.089Z,5.87
2022-10-26T05:08:19.451Z,6.80
2022-10-26T05:10:50.496Z,7.85
2022-10-26T05:13:18.188Z,7.03
2022-10-26T05:15:45.567Z,12.90
2022-10-26T05:18:12.903Z,8.15
2022-10-26T05:20:40.516Z,9.35
2022-10-26T05:23:11.728Z,6.05
2022-10-26T05:25:39.212Z,4.82
2022-10-26T05:28:09.652Z,4.12
2022-10-26T05:30:37.541Z,3.83
2022-10-26T05:33:05.124Z,3.17
2022-10-26T05:35:33.326Z,3.33
2022-10-26T05:38:00.730Z,3.25
2022-10-26T05:40:28.082Z,3.42
2022-10-26T05:43:00.132Z,3.62
2022-10-26T05:45:27.657Z,3.22
2022-10-26T05:47:58.732Z,3.75
2022-10-26T05:50:30.187Z,4.32
2022-10-26T05:52:57.959Z,4.32
2022-10-26T05:55:25.637Z,3.80
2022-10-26T05:57:53.296Z,4.40
2022-10-26T06:00:23.424Z,4.00
2022-10-26T06:03:24.603Z,4.72
2022-10-26T06:05:54.410Z,4.53
2022-10-26T06:08:24.666Z,4.47
2022-10-26T06:10:53.880Z,4.65
2022-10-26T06:13:22.052Z,4.50
2022-10-26T06:16:07.461Z,4.03
2022-10-26T06:21:51.612Z,4.53
2022-10-26T06:24:27.552Z,4.50
2022-10-26T06:27:19.443Z,4.65
2022-10-26T06:30:01.098Z,5.30
2022-10-26T06:32:28.943Z,6.28
2022-10-26T06:35:22.410Z,5.95
2022-10-26T06:37:50.626Z,5.97
2022-10-26T06:40:18.811Z,6.03
2022-10-26T06:42:46.487Z,6.25
2022-10-26T06:45:15.732Z,6.15
2022-10-26T06:47:50.163Z,6.85
2022-10-26T06:50:36.968Z,7.00
2022-10-26T06:53:42.357Z,7.47
2022-10-26T06:56:11.398Z,7.43
2022-10-26T06:58:39.903Z,6.40
2022-10-26T07:01:08.261Z,7.60
2022-10-26T07:03:36.030Z,7.25
2022-10-26T07:06:03.802Z,8.32
2022-10-26T07:08:32.205Z,8.57
2022-10-26T07:10:59.866Z,7.95
2022-10-26T07:13:27.338Z,8.57
2022-10-26T07:15:54.995Z,8.13
2022-10-26T07:18:22.665Z,7.53
2022-10-26T07:20:50.033Z,7.95
2022-10-26T07:23:17.464Z,7.53
2022-10-26T07:25:45.162Z,7.90
2022-10-26T07:28:12.688Z,7.72
2022-10-26T07:30:40.409Z,7.65
2022-10-26T07:33:10.924Z,7.43
2022-10-26T07:35:38.594Z,7.32
2022-10-26T07:38:06.105Z,8.50
2022-10-26T07:40:34.167Z,8.48
2022-10-26T07:43:01.560Z,9.38
2022-10-26T07:45:29.541Z,10.15
2022-10-26T07:47:57.590Z,11.38
2022-10-26T07:50:25.255Z,12.65
2022-10-26T07:52:52.904Z,12.68
2022-10-26T07:55:20.847Z,11.85
2022-10-26T07:57:51.038Z,12.90
2022-10-26T08:00:22.640Z,12.90
2022-10-26T08:02:50.342Z,12.88
2022-10-26T08:05:18.090Z,11.98
2022-10-26T08:07:45.731Z,12.90
2022-10-26T08:10:14.727Z,11.52
2022-10-26T08:12:43.261Z,11.40
2022-10-26T08:15:10.769Z,11.82
2022-10-26T08:17:38.433Z,12.05
2022-10-26T08:20:06.473Z,12.13
2022-10-26T08:22:33.939Z,11.93
2022-10-26T08:25:01.689Z,11.75
2022-10-26T08:27:29.325Z,11.82
2022-10-26T08:29:56.696Z,11.40
2022-10-26T08:32:24.310Z,11.90
2022-10-26T08:34:51.685Z,12.10
2022-10-26T08:37:19.030Z,11.10
2022-10-26T08:39:49.210Z,11.55
2022-10-26T08:42:42.760Z,11.43
2022-10-26T08:45:35.719Z,11.18
2022-10-26T08:48:14.212Z,10.93
2022-10-26T08:50:50.000Z,10.50
2022-10-26T08:53:23.756Z,9.70
2022-10-26T08:55:55.443Z,12.82
2022-10-26T08:58:28.565Z,11.82
2022-10-26T09:00:56.202Z,12.18
2022-10-26T09:03:24.617Z,12.00
2022-10-26T09:05:58.547Z,12.98
2022-10-26T09:08:36.836Z,12.37
2022-10-26T09:11:08.709Z,14.10
2022-10-26T09:13:42.480Z,12.93
2022-10-26T09:16:32.072Z,12.82
2022-10-26T09:19:16.232Z,12.57
2022-10-26T09:21:50.058Z,13.18
2022-10-26T09:24:47.150Z,12.82
2022-10-26T09:27:21.713Z,12.25
2022-10-26T09:29:49.952Z,12.13
2022-10-26T09:32:19.264Z,10.50
2022-10-26T09:34:50.105Z,10.50
2022-10-26T09:37:22.570Z,8.32
2022-10-26T09:39:56.199Z,8.35
2022-10-26T09:42:49.862Z,9.13
2022-10-26T09:45:22.550Z,8.15
2022-10-26T09:47:55.087Z,8.20
2022-10-26T09:50:38.700Z,7.95
2022-10-26T09:53:06.511Z,10.40
2022-10-26T09:55:39.604Z,11.02
2022-10-26T09:58:14.499Z,9.80
2022-10-26T10:00:42.557Z,11.00
2022-10-26T10:03:21.828Z,10.02
2022-10-26T10:05:52.119Z,10.52
2022-10-26T10:08:25.829Z,12.18
2022-10-26T10:11:11.194Z,11.82
2022-10-26T10:13:40.885Z,11.35
2022-10-26T10:16:22.708Z,12.18
2022-10-26T10:18:55.496Z,11.38
2022-10-26T10:21:45.643Z,12.55
2022-10-26T10:24:28.131Z,12.55
2022-10-26T10:27:16.457Z,13.90
2022-10-26T10:29:49.916Z,14.52
2022-10-26T10:32:22.844Z,14.65
2022-10-26T10:34:52.157Z,13.60
2022-10-26T10:37:22.453Z,13.88
2022-10-26T10:39:50.233Z,12.10
2022-10-26T10:42:21.546Z,12.27
2022-10-26T10:44:54.510Z,12.57
2022-10-26T10:47:27.756Z,12.85
2022-10-26T10:50:11.907Z,14.35
2022-10-26T10:52:40.098Z,13.60
2022-10-26T10:55:16.461Z,14.43
2022-10-26T10:57:53.329Z,11.23
2022-10-26T11:00:21.131Z,11.70
2022-10-26T11:02:54.741Z,10.93
2022-10-26T11:05:56.264Z,10.77
2022-10-26T11:08:56.154Z,12.20
2022-10-26T11:11:29.082Z,10.73
2022-10-26T11:14:15.420Z,10.90
2022-10-26T11:17:03.756Z,13.00
2022-10-26T11:19:36.437Z,12.60
2022-10-26T11:22:05.991Z,12.75
2022-10-26T11:25:01.893Z,11.95
2022-10-26T11:27:30.311Z,10.70
2022-10-26T11:30:03.834Z,10.93
2022-10-26T11:32:42.591Z,9.63
2022-10-26T11:35:29.211Z,11.15
2022-10-26T11:38:09.859Z,10.15
2022-10-26T11:40:48.281Z,9.82
2022-10-26T11:43:24.726Z,11.18
2022-10-26T11:46:09.859Z,10.68
2022-10-26T11:48:44.748Z,11.40
2022-10-26T11:51:18.665Z,11.85
2022-10-26T11:53:46.871Z,12.48
2022-10-26T11:56:25.439Z,10.48
2022-10-26T11:58:53.634Z,10.15
2022-10-26T12:01:21.777Z,10.48
2022-10-26T12:03:51.213Z,10.38
2022-10-26T12:06:25.828Z,10.38
2022-10-26T12:09:17.942Z,10.25
2022-10-26T12:11:51.517Z,10.20
2022-10-26T12:14:29.033Z,8.52
2022-10-26T12:17:16.381Z,8.45
2022-10-26T12:19:50.767Z,9.20
2022-10-26T12:22:19.317Z,9.32
2022-10-26T12:25:05.487Z,9.98
2022-10-26T12:27:54.376Z,10.65
2022-10-26T12:30:22.133Z,9.70
2022-10-26T12:32:54.188Z,11.15
2022-10-26T12:35:35.846Z,10.43
2022-10-26T12:38:29.017Z,10.35
2022-10-26T12:41:08.576Z,11.23
2022-10-26T12:43:40.483Z,10.10
2022-10-26T12:46:14.330Z,10.68
2022-10-26T12:48:42.603Z,10.95
2022-10-26T12:51:22.465Z,9.13
2022-10-26T12:54:41.904Z,7.22
2022-10-26T12:57:32.119Z,6.47
2022-10-26T13:00:05.941Z,6.05
2022-10-26T13:02:55.300Z,6.57
2022-10-26T13:05:57.138Z,6.43
2022-10-26T13:08:25.028Z,6.40
2022-10-26T13:11:04.560Z,6.87
2022-10-26T13:13:33.461Z,6.60
2022-10-26T13:16:01.718Z,6.80
2022-10-26T13:18:29.690Z,6.43
2022-10-26T13:21:08.198Z,6.55
2022-10-26T13:23:40.164Z,5.87
2022-10-26T13:26:13.642Z,6.65
2022-10-26T13:28:40.904Z,6.70
2022-10-26T13:31:33.104Z,6.45
2022-10-26T13:34:21.236Z,10.07
2022-10-26T13:36:53.675Z,10.02
2022-10-26T13:39:33.173Z,6.62
2022-10-26T13:42:01.050Z,6.53
2022-10-26T13:44:46.022Z,6.78
2022-10-26T13:47:24.316Z,6.32
2022-10-26T13:49:54.748Z,6.43
2022-10-26T13:52:34.217Z,8.43
2022-10-26T13:55:38.294Z,8.38
2022-10-26T13:58:05.829Z,8.93
2022-10-26T14:00:33.386Z,7.87
2022-10-26T14:03:12.826Z,7.60
2022-10-26T14:05:46.625Z,7.25
2022-10-26T14:08:17.684Z,7.80
2022-10-26T14:10:53.657Z,7.90
2022-10-26T14:13:25.223Z,7.28
2022-10-26T14:15:53.462Z,7.95
2022-10-26T14:18:25.870Z,6.43
2022-10-26T14:21:05.387Z,7.37
2022-10-26T14:23:47.926Z,7.25
2022-10-26T14:26:23.923Z,6.60
2022-10-26T14:28:57.801Z,6.40
2022-10-26T14:31:27.992Z,6.80
2022-10-26T14:33:56.959Z,8.00
2022-10-26T14:36:29.903Z,7.45
2022-10-26T14:39:02.565Z,7.22
2022-10-26T14:41:30.544Z,7.35
2022-10-26T14:43:59.333Z,7.62
2022-10-26T14:46:27.560Z,7.65
2022-10-26T14:48:59.498Z,7.45
2022-10-26T14:51:29.246Z,7.40
2022-10-26T14:53:58.453Z,6.82
2022-10-26T14:56:37.087Z,7.07
2022-10-26T14:59:31.558Z,7.50
2022-10-26T15:01:59.954Z,7.53
2022-10-26T15:04:31.485Z,7.65
2022-10-26T15:07:16.070Z,7.32
2022-10-26T15:09:47.537Z,7.43
2022-10-26T15:12:35.536Z,7.50
2022-10-26T15:15:15.384Z,7.57
2022-10-26T15:17:49.792Z,7.07
2022-10-26T15:20:25.162Z,7.03
2022-10-26T15:22:54.634Z,7.50
2022-10-26T15:25:25.037Z,8.13
2022-10-26T15:27:53.050Z,7.32
2022-10-26T15:30:26.134Z,7.95
2022-10-26T15:32:54.906Z,9.27
2022-10-26T15:35:30.440Z,9.00
2022-10-26T15:37:58.979Z,10.88
2022-10-26T15:40:26.849Z,13.25
2022-10-26T15:42:55.153Z,15.20
2022-10-26T15:45:27.590Z,15.82
2022-10-26T15:47:57.257Z,15.75
2022-10-26T15:50:27.999Z,14.35
2022-10-26T15:53:10.986Z,11.98
2022-10-26T15:55:38.613Z,11.32
2022-10-26T15:58:06.000Z,10.82
2022-10-26T16:00:33.341Z,11.25
2022-10-26T16:03:02.649Z,10.43
2022-10-26T16:08:02.598Z,10.13
2022-10-26T16:10:30.225Z,10.15
2022-10-26T16:12:59.430Z,10.43
2022-10-26T16:15:27.138Z,10.27
2022-10-26T16:17:54.714Z,9.95
2022-10-26T16:20:24.822Z,11.50
2022-10-26T16:22:53.284Z,10.50
2022-10-26T16:25:25.734Z,11.12
2022-10-26T16:27:55.040Z,11.48
2022-10-26T16:30:25.839Z,11.18
2022-10-26T16:32:55.950Z,12.07
2022-10-26T16:35:23.326Z,12.75
2022-10-26T16:37:50.706Z,12.88
2022-10-26T16:40:18.371Z,12.25
2022-10-26T16:42:46.614Z,11.45
2022-10-26T16:45:15.505Z,11.93
2022-10-26T16:47:43.305Z,11.32
2022-10-26T16:50:12.157Z,11.15
2022-10-26T16:52:39.617Z,11.82
2022-10-26T16:55:08.663Z,11.85
2022-10-26T16:57:36.812Z,11.88
2022-10-26T17:00:06.283Z,11.73
2022-10-26T17:02:34.009Z,13.30
2022-10-26T17:05:04.378Z,12.65
2022-10-26T17:07:35.207Z,12.98
2022-10-26T17:10:03.039Z,13.40
2022-10-26T17:12:31.344Z,16.15
2022-10-26T17:15:00.832Z,14.75
2022-10-26T17:17:29.754Z,17.30
2022-10-26T17:19:58.650Z,14.43
2022-10-26T17:22:26.366Z,15.30
2022-10-26T17:24:54.126Z,16.15
2022-10-26T17:27:23.388Z,14.40
2022-10-26T17:29:51.526Z,13.65
2022-10-26T17:32:19.377Z,14.77
2022-10-26T17:34:47.619Z,16.83
2022-10-26T17:37:15.827Z,18.27
2022-10-26T17:39:43.674Z,19.50
2022-10-26T17:42:11.431Z,18.50
2022-10-26T17:44:39.805Z,20.98
2022-10-26T17:47:07.823Z,32.58
2022-10-26T17:49:36.358Z,13.00
2022-10-26T17:52:06.348Z,10.63
2022-10-26T17:54:33.898Z,10.85
2022-10-26T17:57:01.770Z,12.02
2022-10-26T17:59:30.120Z,12.45
2022-10-26T18:01:58.259Z,10.68
2022-10-26T18:04:26.631Z,10.40
2022-10-26T18:06:54.599Z,9.73
2022-10-26T18:09:22.692Z,8.77
2022-10-26T18:11:53.518Z,8.32
2022-10-26T18:14:23.925Z,8.55
2022-10-26T18:16:52.172Z,8.25
2022-10-26T18:19:20.752Z,8.73
2022-10-26T18:21:48.862Z,10.18
2022-10-26T18:24:16.951Z,10.70
2022-10-26T18:26:45.051Z,12.00
2022-10-26T18:29:14.524Z,13.70
2022-10-26T18:31:44.519Z,17.98
2022-10-26T18:34:12.749Z,18.20
2022-10-26T18:36:41.087Z,14.98
2022-10-26T18:39:09.609Z,11.23
2022-10-26T18:41:37.648Z,9.60
2022-10-26T18:44:07.025Z,8.93
2022-10-26T18:46:39.792Z,8.68
2022-10-26T18:49:07.555Z,8.40
2022-10-26T18:51:36.012Z,9.77
2022-10-26T18:54:04.181Z,10.82
2022-10-26T18:56:32.520Z,9.80
2022-10-26T18:59:00.865Z,9.77
2022-10-26T19:01:34.194Z,10.38
2022-10-26T19:04:07.003Z,10.30
2022-10-26T19:06:36.730Z,10.38
2022-10-26T19:09:05.946Z,11.23
2022-10-26T19:11:34.879Z,11.75
2022-10-26T19:14:03.134Z,9.85
2022-10-26T19:16:45.039Z,10.13
2022-10-26T19:19:14.650Z,11.25
2022-10-26T19:21:42.847Z,10.48
2022-10-26T19:24:19.545Z,10.52
2022-10-26T19:26:51.244Z,10.80
2022-10-26T19:29:20.006Z,9.95
2022-10-26T19:31:51.334Z,10.60
2022-10-26T19:34:19.423Z,11.20
2022-10-26T19:36:48.529Z,10.65
2022-10-26T19:39:18.369Z,11.63
2022-10-26T19:41:47.112Z,10.82
2022-10-26T19:44:16.177Z,11.55
2022-10-26T19:46:45.831Z,12.70
2022-10-26T19:49:14.102Z,11.85
2022-10-26T19:51:41.588Z,11.55
2022-10-26T19:54:10.025Z,12.00
2022-10-26T19:56:38.434Z,11.48
2022-10-26T19:59:07.938Z,13.48
2022-10-26T20:01:40.758Z,16.23
2022-10-26T20:04:09.067Z,19.58
2022-10-26T20:06:37.361Z,17.48
2022-10-26T20:09:05.400Z,16.12
2022-10-26T20:11:36.455Z,13.50
2022-10-26T20:14:05.951Z,13.45
2022-10-26T20:16:34.384Z,11.80
2022-10-26T20:19:02.651Z,12.20
2022-10-26T20:21:32.413Z,12.02
2022-10-26T20:24:09.799Z,11.18
2022-10-26T20:26:38.959Z,11.60
2022-10-26T20:29:09.142Z,9.68
2022-10-26T20:31:37.341Z,9.13
2022-10-26T20:34:05.058Z,9.75
2022-10-26T20:36:33.100Z,10.07
2022-10-26T20:39:01.265Z,9.52
2022-10-26T20:41:29.186Z,9.57
2022-10-26T20:43:58.287Z,10.73
2022-10-26T20:46:27.369Z,11.02
2022-10-26T20:48:55.819Z,14.40
2022-10-26T20:51:47.824Z,16.45
2022-10-26T20:54:38.130Z,16.55
2022-10-26T20:57:07.696Z,17.08
2022-10-26T20:59:43.864Z,15.07
2022-10-26T21:02:12.054Z,12.68
2022-10-26T21:04:39.425Z,11.50
2022-10-26T21:07:07.056Z,11.98
2022-10-26T21:09:36.664Z,12.85
2022-10-26T21:12:04.660Z,13.05
2022-10-26T21:14:35.846Z,14.18
2022-10-26T21:17:03.503Z,12.93
2022-10-26T21:19:31.047Z,12.20
2022-10-26T21:21:58.460Z,12.77
2022-10-26T21:24:26.137Z,13.50
2022-10-26T21:26:53.561Z,13.73
2022-10-26T21:29:20.950Z,13.02
2022-10-26T21:31:48.741Z,13.70
2022-10-26T21:34:16.078Z,13.75
2022-10-26T21:36:43.651Z,14.23
2022-10-26T21:39:11.273Z,13.90
2022-10-26T21:41:38.774Z,14.50
2022-10-26T21:44:09.133Z,13.80
2022-10-26T21:46:38.725Z,15.48
2022-10-26T21:49:06.427Z,13.85
2022-10-26T21:51:35.052Z,14.75
2022-10-26T21:54:03.784Z,15.32
2022-10-26T21:56:31.242Z,14.30
2022-10-26T21:59:00.353Z,15.90
2022-10-26T22:01:28.064Z,16.00
2022-10-26T22:03:56.216Z,14.87
2022-10-26T22:06:23.563Z,14.82
2022-10-26T22:08:51.168Z,14.82
2022-10-26T22:11:20.810Z,15.80
2022-10-26T22:13:49.478Z,15.38
2022-10-26T22:16:26.108Z,15.77
2022-10-26T22:18:55.463Z,17.12
2022-10-26T22:21:25.436Z,17.35
2022-10-26T22:23:53.300Z,17.42
2022-10-26T22:26:25.159Z,17.08
2022-10-26T22:28:54.393Z,17.70
2022-10-26T22:31:24.961Z,17.52
2022-10-26T22:33:53.791Z,16.95
2022-10-26T22:36:21.779Z,17.50
2022-10-26T22:38:50.347Z,17.35
2022-10-26T22:41:18.944Z,16.00
2022-10-26T22:43:46.403Z,16.55
2022-10-26T22:46:19.642Z,16.30
2022-10-26T22:48:47.338Z,14.85
2022-10-26T22:51:17.774Z,14.40
2022-10-26T22:53:45.524Z,13.80
2022-10-26T22:56:13.917Z,13.38
2022-10-26T22:58:41.541Z,13.60
2022-10-26T23:01:13.980Z,14.60
2022-10-26T23:03:42.003Z,14.73
2022-10-26T23:06:12.084Z,13.68
2022-10-26T23:08:39.444Z,14.85
2022-10-26T23:11:10.293Z,15.88
2022-10-26T23:13:37.729Z,14.90
2022-10-26T23:16:07.108Z,14.82
2022-10-26T23:18:35.149Z,14.00
2022-10-26T23:21:03.432Z,12.95
2022-10-26T23:23:31.042Z,12.57
2022-10-26T23:26:03.079Z,14.50
2022-10-26T23:28:30.929Z,15.23
2022-10-26T23:30:58.717Z,15.40
2022-10-26T23:33:26.154Z,15.82
2022-10-26T23:35:53.650Z,17.52
2022-10-26T23:38:21.311Z,17.08
2022-10-26T23:40:52.641Z,16.75
2022-10-26T23:43:20.427Z,18.70
2022-10-26T23:45:48.277Z,16.70
2022-10-26T23:48:16.613Z,16.10
2022-10-26T23:50:45.111Z,15.82
2022-10-26T23:53:14.251Z,16.08
2022-10-26T23:55:43.200Z,15.50
2022-10-26T23:58:10.701Z,13.75
